Suitland, Maryland
Current Conditions -  °F | °C
As of 10:58 PM on Sunday 19 Oct 2014 (Local Time) from KADW Reporting Station
Clear Clear  
Wind Chill: 45°   Ceiling: Unl
Heat Index: 45°   Visibility: 10mi
Dew Point: 36°   Wind: 3mph
Humidity: 70%   Direction: 200°SSW
Pressure: 30.12"   Gusts: NA
Location:  38.85°N, 76.92°W
Report Text: KADW 200258Z AUTO 20003KT 10SM CLR 07/02 A3012 RMK AO2 SLP207 T00740022 52015
Loading
Personal Weather Stations






























Interactive Weather Map
Tropical Storm Tracking
New forecast layout! Learn more

10-Day Weather Forecast

Advertisements
Track Severe Weather on mobile